createdAt,value
2022-08-26T00:00:29.077Z,95455.63
2022-08-26T00:01:31.976Z,95461.19
2022-08-26T00:02:35.064Z,95458.19
2022-08-26T00:03:37.330Z,95460.97
2022-08-26T00:04:40.353Z,95451.06
2022-08-26T00:05:43.592Z,95455.41
2022-08-26T00:06:46.560Z,95447.03
2022-08-26T00:07:49.683Z,95451.06
2022-08-26T00:08:54.644Z,95452.63
2022-08-26T00:09:56.537Z,95449.81
2022-08-26T00:10:59.956Z,95453.09
2022-08-26T00:12:03.431Z,95463.50
2022-08-26T00:13:07.833Z,95451.06
2022-08-26T00:14:12.235Z,95454.34
2022-08-26T00:15:16.489Z,95451.56
2022-08-26T00:16:19.665Z,95456.38
2022-08-26T00:17:21.994Z,95452.09
2022-08-26T00:18:25.127Z,95456.38
2022-08-26T00:19:28.123Z,95454.13
2022-08-26T00:20:33.557Z,95456.13
2022-08-26T00:21:35.777Z,95457.41
2022-08-26T00:22:40.527Z,95451.09
2022-08-26T00:23:42.524Z,95456.66
2022-08-26T00:24:48.066Z,95459.44
2022-08-26T00:25:50.252Z,95459.94
2022-08-26T00:26:53.243Z,95458.66
2022-08-26T00:27:55.137Z,95454.38
2022-08-26T00:29:00.420Z,95460.69
2022-08-26T00:30:04.039Z,95459.94
2022-08-26T00:31:07.121Z,95457.16
2022-08-26T00:32:09.125Z,95463.22
2022-08-26T00:33:14.742Z,95449.81
2022-08-26T00:34:16.875Z,95452.34
2022-08-26T00:35:23.741Z,95460.44
2022-08-26T00:36:25.832Z,95452.59
2022-08-26T00:37:33.330Z,95458.91
2022-08-26T00:38:37.911Z,95457.91
2022-08-26T00:39:42.179Z,95450.31
2022-08-26T00:40:47.123Z,95457.13
2022-08-26T00:41:50.529Z,95448.78
2022-08-26T00:42:52.714Z,95459.94
2022-08-26T00:43:55.812Z,95452.84
2022-08-26T00:45:00.730Z,95458.41
2022-08-26T00:46:09.413Z,95452.84
2022-08-26T00:47:21.610Z,95451.31
2022-08-26T00:48:27.236Z,95456.88
2022-08-26T00:49:37.870Z,95449.81
2022-08-26T00:50:49.179Z,95455.38
2022-08-26T00:51:55.702Z,95460.19
2022-08-26T00:52:59.881Z,95453.84
2022-08-26T00:54:06.368Z,95454.63
2022-08-26T00:55:12.112Z,95453.09
2022-08-26T00:56:28.935Z,95451.56
2022-08-26T00:57:32.104Z,95463.47
2022-08-26T00:58:37.955Z,95457.63
2022-08-26T00:59:45.212Z,95454.59
2022-08-26T01:00:49.680Z,95451.06
2022-08-26T01:01:52.037Z,95453.59
2022-08-26T01:02:56.579Z,95457.66
2022-08-26T01:04:00.876Z,95460.44
2022-08-26T01:05:05.947Z,95453.81
2022-08-26T01:06:12.599Z,95462.16
2022-08-26T01:07:16.479Z,95464.19
2022-08-26T01:08:18.484Z,95461.41
2022-08-26T01:09:23.650Z,95463.44
2022-08-26T01:10:29.780Z,95463.44
2022-08-26T01:11:34.052Z,95449.25
2022-08-26T01:12:41.018Z,95459.66
2022-08-26T01:13:44.056Z,95462.44
2022-08-26T01:14:47.380Z,95458.09
2022-08-26T01:15:57.155Z,95453.81
2022-08-26T01:17:02.149Z,95455.84
2022-08-26T01:18:08.893Z,95456.34
2022-08-26T01:19:19.126Z,95458.63
2022-08-26T01:20:30.084Z,95450.28
2022-08-26T01:21:40.543Z,95450.28
2022-08-26T01:22:54.488Z,95447.50
2022-08-26T01:23:58.481Z,95459.88
2022-08-26T01:25:03.413Z,95451.28
2022-08-26T01:26:19.392Z,95451.28
2022-08-26T01:27:23.445Z,95449.75
2022-08-26T01:28:32.062Z,95455.31
2022-08-26T01:29:37.509Z,95449.50
2022-08-26T01:30:41.489Z,95442.44
2022-08-26T01:31:47.208Z,95449.25
2022-08-26T01:32:50.638Z,95447.72
2022-08-26T01:34:06.836Z,95448.97
2022-08-26T01:35:11.409Z,95454.28
2022-08-26T01:36:15.204Z,95445.94
2022-08-26T01:37:22.155Z,95451.28
2022-08-26T01:38:27.779Z,95462.41
2022-08-26T01:39:35.740Z,95458.09
2022-08-26T01:40:42.195Z,95458.09
2022-08-26T01:41:45.747Z,95460.88
2022-08-26T01:42:50.125Z,95454.53
2022-08-26T01:43:55.840Z,95448.22
2022-08-26T01:45:02.308Z,95446.69
2022-08-26T01:46:04.971Z,95451.50
2022-08-26T01:47:10.567Z,95443.91
2022-08-26T01:48:15.949Z,95445.94
2022-08-26T01:49:19.837Z,95445.19
2022-08-26T01:50:27.542Z,95453.53
2022-08-26T01:51:32.146Z,95450.75
2022-08-26T01:52:38.521Z,95455.56
2022-08-26T01:53:43.585Z,95454.03
2022-08-26T01:54:50.460Z,95454.78
2022-08-26T01:55:58.207Z,95450.50
2022-08-26T01:57:02.074Z,95457.28
2022-08-26T01:58:09.897Z,95454.28
2022-08-26T01:59:16.826Z,95449.97
2022-08-26T02:00:20.308Z,95452.47
2022-08-26T02:01:24.122Z,95453.75
2022-08-26T02:02:32.243Z,95455.00
2022-08-26T02:03:38.600Z,95451.97
2022-08-26T02:04:49.955Z,95447.66
2022-08-26T02:05:58.428Z,95447.66
2022-08-26T02:07:05.352Z,95446.16
2022-08-26T02:08:08.489Z,95444.63
2022-08-26T02:09:13.637Z,95452.22
2022-08-26T02:10:17.093Z,95449.44
2022-08-26T02:11:23.241Z,95445.91
2022-08-26T02:12:28.313Z,95455.00
2022-08-26T02:13:33.228Z,95443.13
2022-08-26T02:14:43.517Z,95448.69
2022-08-26T02:15:46.767Z,95448.69
2022-08-26T02:16:52.952Z,95451.47
2022-08-26T02:17:55.866Z,95447.13
2022-08-26T02:19:02.384Z,95452.72
2022-08-26T02:20:06.829Z,95449.63
2022-08-26T02:21:17.735Z,95448.41
2022-08-26T02:22:22.940Z,95449.63
2022-08-26T02:23:27.910Z,95448.13
2022-08-26T02:24:48.132Z,95448.88
2022-08-26T02:25:55.768Z,95448.13
2022-08-26T02:26:59.559Z,95452.41
2022-08-26T02:28:01.719Z,95452.16
2022-08-26T02:29:10.888Z,95449.88
2022-08-26T02:30:18.256Z,95455.94
2022-08-26T02:31:21.240Z,95457.97
2022-08-26T02:32:24.810Z,95450.13
2022-08-26T02:33:29.335Z,95448.59
2022-08-26T02:34:32.914Z,95445.56
2022-08-26T02:35:37.269Z,95447.06
2022-08-26T02:36:39.959Z,95445.56
2022-08-26T02:37:43.082Z,95453.91
2022-08-26T02:38:45.231Z,95436.94
2022-08-26T02:39:50.768Z,95441.75
2022-08-26T02:40:54.599Z,95435.44
2022-08-26T02:41:57.776Z,95436.69
2022-08-26T02:43:00.275Z,95441.00
2022-08-26T02:44:07.135Z,95441.75
2022-08-26T02:45:10.876Z,95441.00
2022-08-26T02:46:23.091Z,95441.00
2022-08-26T02:47:32.728Z,95438.72
2022-08-26T02:48:35.796Z,95445.03
2022-08-26T02:49:38.108Z,95442.75
2022-08-26T02:50:42.020Z,95443.53
2022-08-26T02:51:44.616Z,95443.53
2022-08-26T02:52:48.305Z,95440.47
2022-08-26T02:53:50.284Z,95439.22
2022-08-26T02:54:55.586Z,95448.81
2022-08-26T02:55:57.729Z,95446.03
2022-08-26T02:57:03.228Z,95446.03
2022-08-26T02:58:05.395Z,95438.94
2022-08-26T02:59:08.473Z,95445.28
2022-08-26T03:00:14.513Z,95444.50
2022-08-26T03:01:23.028Z,95444.50
2022-08-26T03:02:51.457Z,95448.56
2022-08-26T03:03:55.003Z,95447.81
2022-08-26T03:05:01.879Z,95444.25
2022-08-26T03:06:05.660Z,95452.59
2022-08-26T03:07:07.785Z,95446.28
2022-08-26T03:08:11.781Z,95450.31
2022-08-26T03:09:15.980Z,95450.31
2022-08-26T03:10:23.231Z,95450.31
2022-08-26T03:11:32.395Z,95444.00
2022-08-26T03:12:36.174Z,95443.22
2022-08-26T03:13:38.353Z,95442.47
2022-08-26T03:14:41.626Z,95441.72
2022-08-26T03:15:43.595Z,95442.47
2022-08-26T03:16:50.886Z,95442.47
2022-08-26T03:17:52.824Z,95448.03
2022-08-26T03:18:55.773Z,95441.72
2022-08-26T03:19:58.007Z,95452.09
2022-08-26T03:21:06.803Z,95440.69
2022-08-26T03:22:08.730Z,95447.78
2022-08-26T03:23:12.023Z,95440.69
2022-08-26T03:24:14.735Z,95448.78
2022-08-26T03:25:18.231Z,95440.44
2022-08-26T03:26:22.051Z,95445.25
2022-08-26T03:27:25.120Z,95450.03
2022-08-26T03:28:27.398Z,95439.41
2022-08-26T03:29:53.666Z,95434.34
2022-08-26T03:30:57.969Z,95442.41
2022-08-26T03:32:00.400Z,95440.91
2022-08-26T03:33:03.469Z,95439.38
2022-08-26T03:34:06.310Z,95437.88
2022-08-26T03:35:09.456Z,95435.56
2022-08-26T03:36:12.584Z,95437.59
2022-08-26T03:37:14.825Z,95436.09
2022-08-26T03:38:17.764Z,95438.88
2022-08-26T03:39:19.902Z,95442.13
2022-08-26T03:40:23.483Z,95437.34
2022-08-26T03:41:27.145Z,95435.81
2022-08-26T03:42:30.224Z,95431.03
2022-08-26T03:43:32.134Z,95435.81
2022-08-26T03:44:35.483Z,95431.78
2022-08-26T03:45:37.710Z,95432.53
2022-08-26T03:46:41.860Z,95435.81
2022-08-26T03:47:47.520Z,95428.25
2022-08-26T03:48:50.553Z,95430.25
2022-08-26T03:49:52.626Z,95440.59
2022-08-26T03:50:56.773Z,95437.06
2022-08-26T03:51:59.654Z,95432.78
2022-08-26T03:53:03.260Z,95433.53
2022-08-26T03:54:06.835Z,95434.28
2022-08-26T03:55:12.064Z,95432.78
2022-08-26T03:56:14.873Z,95432.78
2022-08-26T03:57:19.492Z,95428.47
2022-08-26T03:58:24.152Z,95425.69
2022-08-26T03:59:27.806Z,95429.72
2022-08-26T04:00:30.366Z,95429.72
2022-08-26T04:01:33.527Z,95429.72
2022-08-26T04:02:35.710Z,95428.19
2022-08-26T04:03:56.580Z,95428.19
2022-08-26T04:05:01.203Z,95422.63
2022-08-26T04:06:03.820Z,95425.94
2022-08-26T04:07:07.034Z,95427.16
2022-08-26T04:08:10.114Z,95430.72
2022-08-26T04:09:15.474Z,95420.84
2022-08-26T04:10:20.116Z,95423.63
2022-08-26T04:11:27.556Z,95429.19
2022-08-26T04:12:31.036Z,95430.47
2022-08-26T04:13:34.332Z,95424.91
2022-08-26T04:14:38.190Z,95423.63
2022-08-26T04:15:42.009Z,95424.91
2022-08-26T04:16:45.645Z,95420.59
2022-08-26T04:17:49.176Z,95418.56
2022-08-26T04:18:51.766Z,95426.16
2022-08-26T04:19:55.019Z,95420.31
2022-08-26T04:20:57.070Z,95428.66
2022-08-26T04:22:02.679Z,95425.13
2022-08-26T04:23:04.967Z,95426.41
2022-08-26T04:24:11.909Z,95424.38
2022-08-26T04:25:15.304Z,95425.63
2022-08-26T04:26:19.732Z,95424.88
2022-08-26T04:27:23.152Z,95428.13
2022-08-26T04:28:26.786Z,95425.13
2022-08-26T04:29:29.879Z,95420.78
2022-08-26T04:30:32.414Z,95422.06
2022-08-26T04:31:38.247Z,95419.28
2022-08-26T04:32:40.213Z,95418.50
2022-08-26T04:33:47.701Z,95422.06
2022-08-26T04:34:51.794Z,95421.28
2022-08-26T04:36:02.003Z,95428.38
2022-08-26T04:37:04.848Z,95426.34
2022-08-26T04:38:08.736Z,95424.34
2022-08-26T04:39:12.461Z,95426.34
2022-08-26T04:40:15.576Z,95424.84
2022-08-26T04:41:18.394Z,95427.91
2022-08-26T04:42:23.297Z,95427.63
2022-08-26T04:43:30.604Z,95429.13
2022-08-26T04:44:36.805Z,95422.06
2022-08-26T04:45:40.447Z,95424.06
2022-08-26T04:46:44.194Z,95429.13
2022-08-26T04:47:47.540Z,95424.06
2022-08-26T04:48:52.327Z,95427.63
2022-08-26T04:49:56.131Z,95426.84
2022-08-26T04:51:01.342Z,95420.53
2022-08-26T04:52:03.942Z,95424.84
2022-08-26T04:53:08.008Z,95426.09
2022-08-26T04:54:10.250Z,95427.63
2022-08-26T04:55:14.494Z,95426.09
2022-08-26T04:56:16.630Z,95430.69
2022-08-26T04:57:20.068Z,95431.66
2022-08-26T04:58:24.482Z,95428.13
2022-08-26T04:59:29.777Z,95434.16
2022-08-26T05:00:31.689Z,95424.31
2022-08-26T05:01:39.501Z,95427.84
2022-08-26T05:02:43.309Z,95427.09
2022-08-26T05:03:46.434Z,95436.69
2022-08-26T05:04:48.385Z,95425.56
2022-08-26T05:05:55.278Z,95431.13
2022-08-26T05:07:02.705Z,95431.13
2022-08-26T05:08:06.093Z,95430.34
2022-08-26T05:09:08.243Z,95431.13
2022-08-26T05:10:11.387Z,95426.81
2022-08-26T05:11:13.601Z,95428.84
2022-08-26T05:12:16.399Z,95431.13
2022-08-26T05:13:20.830Z,95430.34
2022-08-26T05:14:23.883Z,95426.81
2022-08-26T05:15:27.275Z,95430.34
2022-08-26T05:16:30.392Z,95432.38
2022-08-26T05:17:33.355Z,95435.44
2022-08-26T05:18:36.826Z,95432.38
2022-08-26T05:19:42.856Z,95443.00
2022-08-26T05:20:48.252Z,95443.50
2022-08-26T05:21:51.179Z,95447.78
2022-08-26T05:22:53.082Z,95444.78
2022-08-26T05:23:56.961Z,95448.31
2022-08-26T05:24:58.864Z,95450.34
2022-08-26T05:26:02.062Z,95443.22
2022-08-26T05:27:07.513Z,95448.78
2022-08-26T05:28:16.980Z,95448.78
2022-08-26T05:29:19.915Z,95440.47
2022-08-26T05:30:21.883Z,95444.00
2022-08-26T05:31:28.259Z,95451.56
2022-08-26T05:32:31.905Z,95453.13
2022-08-26T05:33:34.237Z,95454.34
2022-08-26T05:34:38.398Z,95455.09
2022-08-26T05:35:40.760Z,95454.34
2022-08-26T05:36:44.358Z,95448.53
2022-08-26T05:37:46.515Z,95452.06
2022-08-26T05:38:50.533Z,95449.03
2022-08-26T05:39:52.806Z,95457.38
2022-08-26T05:40:56.316Z,95460.91
2022-08-26T05:41:58.542Z,95453.81
2022-08-26T05:43:03.465Z,95453.06
2022-08-26T05:44:09.826Z,95456.59
2022-08-26T05:45:12.954Z,95457.88
2022-08-26T05:46:16.291Z,95456.31
2022-08-26T05:47:20.999Z,95456.59
2022-08-26T05:48:24.371Z,95457.09
2022-08-26T05:49:27.604Z,95464.19
2022-08-26T05:50:29.824Z,95456.59
2022-08-26T05:51:34.153Z,95463.41
2022-08-26T05:52:36.491Z,95462.16
2022-08-26T05:53:43.805Z,95461.66
2022-08-26T05:54:55.103Z,95462.94
2022-08-26T05:55:58.664Z,95472.78
2022-08-26T05:57:01.704Z,95470.50
2022-08-26T05:58:05.183Z,95464.94
2022-08-26T05:59:14.113Z,95460.91
2022-08-26T06:00:17.898Z,95472.03
2022-08-26T06:01:23.777Z,95467.22
2022-08-26T06:02:28.739Z,95468.72
2022-08-26T06:03:31.782Z,95467.97
2022-08-26T06:04:35.080Z,95467.97
2022-08-26T06:05:39.452Z,95463.97
2022-08-26T06:06:43.133Z,95466.47
2022-08-26T06:08:05.849Z,95462.41
2022-08-26T06:09:11.590Z,95461.66
2022-08-26T06:10:32.374Z,95459.63
2022-08-26T06:11:36.593Z,95467.22
2022-08-26T06:12:38.537Z,95460.91
2022-08-26T06:13:42.637Z,95472.03
2022-08-26T06:14:45.664Z,95463.69
2022-08-26T06:15:51.732Z,95466.47
2022-08-26T06:16:55.202Z,95464.94
2022-08-26T06:17:58.599Z,95464.94
2022-08-26T06:19:03.834Z,95469.72
2022-08-26T06:20:14.339Z,95464.19
2022-08-26T06:21:22.192Z,95463.69
2022-08-26T06:22:48.230Z,95466.47
2022-08-26T06:24:11.248Z,95461.66
2022-08-26T06:25:32.195Z,95463.97
2022-08-26T06:26:35.788Z,95464.72
2022-08-26T06:27:38.561Z,95461.94
2022-08-26T06:28:43.490Z,95463.97
2022-08-26T06:29:47.094Z,95468.25
2022-08-26T06:30:49.007Z,95463.97
2022-08-26T06:31:52.175Z,95459.91
2022-08-26T06:32:54.272Z,95464.22
2022-08-26T06:33:59.371Z,95459.91
2022-08-26T06:35:02.637Z,95465.47
2022-08-26T06:36:06.608Z,95463.44
2022-08-26T06:37:09.755Z,95467.00
2022-08-26T06:38:13.945Z,95468.25
2022-08-26T06:39:19.235Z,95461.44
2022-08-26T06:40:23.310Z,95457.13
2022-08-26T06:41:26.392Z,95465.47
2022-08-26T06:42:28.338Z,95472.56
2022-08-26T06:43:31.529Z,95471.03
2022-08-26T06:44:35.461Z,95471.78
2022-08-26T06:45:39.743Z,95471.03
2022-08-26T06:46:45.857Z,95465.47
2022-08-26T06:47:52.860Z,95462.69
2022-08-26T06:48:58.129Z,95475.06
2022-08-26T06:50:01.468Z,95469.50
2022-08-26T06:51:07.549Z,95471.03
2022-08-26T06:52:10.871Z,95477.34
2022-08-26T06:53:14.280Z,95471.03
2022-08-26T06:54:17.156Z,95477.34
2022-08-26T06:55:19.417Z,95480.91
2022-08-26T06:56:24.493Z,95476.84
2022-08-26T06:57:26.419Z,95475.34
2022-08-26T06:58:29.350Z,95478.88
2022-08-26T06:59:31.313Z,95474.06
2022-08-26T07:00:34.918Z,95472.56
2022-08-26T07:01:43.088Z,95485.19
2022-08-26T07:02:46.054Z,95479.63
2022-08-26T07:03:52.899Z,95473.31
2022-08-26T07:04:56.792Z,95472.56
2022-08-26T07:06:04.737Z,95480.91
2022-08-26T07:07:07.230Z,95471.03
2022-08-26T07:08:12.677Z,95477.34
2022-08-26T07:09:15.379Z,95473.06
2022-08-26T07:10:18.740Z,95476.59
2022-08-26T07:11:20.827Z,95475.06
2022-08-26T07:12:23.769Z,95481.38
2022-08-26T07:13:30.593Z,95475.06
2022-08-26T07:14:35.434Z,95477.84
2022-08-26T07:15:41.139Z,95475.06
2022-08-26T07:16:44.197Z,95475.06
2022-08-26T07:17:47.147Z,95484.66
2022-08-26T07:18:53.081Z,95486.94
2022-08-26T07:19:56.016Z,95486.19
2022-08-26T07:20:59.709Z,95481.38
2022-08-26T07:22:07.345Z,95486.94
2022-08-26T07:23:11.831Z,95486.94
2022-08-26T07:24:14.940Z,95487.69
2022-08-26T07:25:19.363Z,95475.84
2022-08-26T07:26:28.580Z,95482.16
2022-08-26T07:27:31.668Z,95482.16
2022-08-26T07:28:35.779Z,95482.16
2022-08-26T07:29:41.205Z,95485.69
2022-08-26T07:30:44.182Z,95487.69
2022-08-26T07:31:46.283Z,95490.00
2022-08-26T07:32:49.739Z,95484.91
2022-08-26T07:33:52.106Z,95498.34
2022-08-26T07:34:55.215Z,95496.31
2022-08-26T07:35:58.322Z,95492.03
2022-08-26T07:37:04.902Z,95496.31
2022-08-26T07:38:12.171Z,95495.56
2022-08-26T07:39:14.883Z,95492.78
2022-08-26T07:40:18.202Z,95503.38
2022-08-26T07:41:22.871Z,95492.25
2022-08-26T07:42:26.071Z,95499.09
2022-08-26T07:43:29.357Z,95493.03
2022-08-26T07:44:32.571Z,95497.81
2022-08-26T07:45:35.650Z,95492.25
2022-08-26T07:46:38.734Z,95492.25
2022-08-26T07:47:41.755Z,95492.25
2022-08-26T07:48:46.150Z,95491.50
2022-08-26T07:49:52.682Z,95493.03
2022-08-26T07:50:54.896Z,95492.25
2022-08-26T07:51:58.901Z,95486.69
2022-08-26T07:53:02.760Z,95498.09
2022-08-26T07:54:06.217Z,95495.31
2022-08-26T07:55:10.707Z,95491.03
2022-08-26T07:56:12.814Z,95489.75
2022-08-26T07:57:15.955Z,95492.53
2022-08-26T07:58:21.253Z,95489.75
2022-08-26T07:59:24.936Z,95491.28
2022-08-26T08:00:27.900Z,95491.28
2022-08-26T08:01:31.653Z,95490.53
2022-08-26T08:02:36.472Z,95489.25
2022-08-26T08:03:40.536Z,95489.75
2022-08-26T08:04:42.515Z,95489.75
2022-08-26T08:05:46.352Z,95489.75
2022-08-26T08:06:48.886Z,95488.25
2022-08-26T08:07:53.486Z,95487.47
2022-08-26T08:08:57.420Z,95486.22
2022-08-26T08:10:00.420Z,95489.75
2022-08-26T08:11:03.292Z,95483.44
2022-08-26T08:12:09.433Z,95498.09
2022-08-26T08:13:16.678Z,95488.25
2022-08-26T08:14:22.109Z,95489.00
2022-08-26T08:15:27.960Z,95488.25
2022-08-26T08:16:32.201Z,95495.31
2022-08-26T08:17:35.619Z,95489.75
2022-08-26T08:18:38.858Z,95487.75
2022-08-26T08:19:43.561Z,95487.75
2022-08-26T08:20:59.138Z,95489.75
2022-08-26T08:22:17.809Z,95484.97
2022-08-26T08:23:22.984Z,95488.50
2022-08-26T08:24:28.656Z,95481.69
2022-08-26T08:25:31.548Z,95490.78
2022-08-26T08:26:35.368Z,95484.47
2022-08-26T08:27:39.894Z,95492.03
2022-08-26T08:28:43.356Z,95487.25
2022-08-26T08:29:47.083Z,95486.50
2022-08-26T08:30:50.842Z,95483.22
2022-08-26T08:31:58.304Z,95482.44
2022-08-26T08:33:00.703Z,95489.06
2022-08-26T08:34:04.025Z,95490.28
2022-08-26T08:35:11.574Z,95489.06
2022-08-26T08:36:18.591Z,95491.81
2022-08-26T08:37:23.888Z,95486.50
2022-08-26T08:38:26.598Z,95494.84
2022-08-26T08:39:32.995Z,95488.03
2022-08-26T08:40:40.233Z,95490.81
2022-08-26T08:41:54.739Z,95489.56
2022-08-26T08:42:59.863Z,95489.56
2022-08-26T08:44:04.130Z,95494.34
2022-08-26T08:45:15.407Z,95484.25
2022-08-26T08:46:20.178Z,95489.06
2022-08-26T08:47:29.585Z,95482.75
2022-08-26T08:48:36.665Z,95485.81
2022-08-26T08:49:38.707Z,95485.81
2022-08-26T08:50:45.914Z,95483.28
2022-08-26T08:51:52.282Z,95488.34
2022-08-26T08:53:08.810Z,95497.44
2022-08-26T08:54:12.207Z,95486.31
2022-08-26T08:55:18.289Z,95483.53
2022-08-26T08:56:29.963Z,95488.59
2022-08-26T08:57:45.277Z,95487.59
2022-08-26T08:58:57.349Z,95485.59
2022-08-26T09:00:06.351Z,95483.09
2022-08-26T09:01:16.432Z,95490.16
2022-08-26T09:02:25.658Z,95484.88
2022-08-26T09:03:42.887Z,95481.59
2022-08-26T09:05:06.633Z,95483.88
2022-08-26T09:06:17.362Z,95483.38
2022-08-26T09:07:24.547Z,95489.97
2022-08-26T09:08:35.172Z,95483.41
2022-08-26T09:09:40.503Z,95483.66
2022-08-26T09:10:47.197Z,95476.84
2022-08-26T09:11:49.707Z,95483.94
2022-08-26T09:12:54.264Z,95490.25
2022-08-26T09:13:57.695Z,95484.19
2022-08-26T09:15:06.024Z,95486.22
2022-08-26T09:16:13.953Z,95481.41
2022-08-26T09:17:25.807Z,95484.47
2022-08-26T09:18:42.888Z,95483.69
2022-08-26T09:19:53.192Z,95487.25
2022-08-26T09:20:58.478Z,95478.91
2022-08-26T09:22:07.006Z,95486.22
2022-08-26T09:23:11.432Z,95485.00
2022-08-26T09:24:14.473Z,95483.72
2022-08-26T09:25:20.099Z,95482.47
2022-08-26T09:26:29.224Z,95482.47
2022-08-26T09:27:42.766Z,95486.75
2022-08-26T09:28:48.201Z,95480.72
2022-08-26T09:29:51.365Z,95482.97
2022-08-26T09:31:14.688Z,95481.47
2022-08-26T09:32:22.236Z,95487.28
2022-08-26T09:33:28.177Z,95494.38
2022-08-26T09:34:31.432Z,95491.59
2022-08-26T09:35:35.977Z,95486.03
2022-08-26T09:36:41.389Z,95486.03
2022-08-26T09:38:55.872Z,95482.00
2022-08-26T09:40:21.045Z,95487.56
2022-08-26T09:41:32.109Z,95478.47
2022-08-26T09:42:34.319Z,95479.22
2022-08-26T09:43:37.537Z,95480.72
2022-08-26T09:44:56.417Z,95484.78
2022-08-26T09:46:14.411Z,95483.50
2022-08-26T09:47:23.250Z,95478.69
2022-08-26T09:48:30.339Z,95477.94
2022-08-26T09:49:36.198Z,95478.69
2022-08-26T09:50:50.248Z,95473.91
2022-08-26T09:52:14.349Z,95468.34
2022-08-26T09:53:28.513Z,95463.53
2022-08-26T09:54:32.508Z,95469.38
2022-08-26T09:55:37.219Z,95465.81
2022-08-26T09:56:41.177Z,95467.34
2022-08-26T09:57:49.510Z,95461.78
2022-08-26T09:58:54.911Z,95463.28
2022-08-26T09:59:57.421Z,95452.94
2022-08-26T10:01:02.385Z,95453.69
2022-08-26T10:02:20.712Z,95456.75
2022-08-26T10:03:27.146Z,95458.28
2022-08-26T10:04:31.229Z,95451.72
2022-08-26T10:05:40.989Z,95454.75
2022-08-26T10:06:54.522Z,95445.16
2022-08-26T10:08:00.185Z,95450.22
2022-08-26T10:09:08.293Z,95442.63
2022-08-26T10:10:18.423Z,95445.66
2022-08-26T10:11:30.531Z,95438.84
2022-08-26T10:12:38.858Z,95437.81
2022-08-26T10:13:45.947Z,95433.78
2022-08-26T10:14:51.972Z,95432.50
2022-08-26T10:16:02.000Z,95436.31
2022-08-26T10:17:09.226Z,95446.69
2022-08-26T10:18:17.594Z,95434.31
2022-08-26T10:19:25.323Z,95430.75
2022-08-26T10:20:52.355Z,95436.31
2022-08-26T10:22:00.367Z,95429.50
2022-08-26T10:23:08.080Z,95424.69
2022-08-26T10:24:16.895Z,95431.78
2022-08-26T10:25:24.686Z,95433.03
2022-08-26T10:26:34.302Z,95429.00
2022-08-26T10:27:49.615Z,95426.22
2022-08-26T10:29:03.772Z,95424.94
2022-08-26T10:30:12.555Z,95420.13
2022-08-26T10:31:27.445Z,95418.88
2022-08-26T10:32:36.190Z,95425.97
2022-08-26T10:33:44.444Z,95418.34
2022-08-26T10:34:46.620Z,95415.84
2022-08-26T10:35:54.259Z,95410.28
2022-08-26T10:37:14.316Z,95411.28
2022-08-26T10:38:28.793Z,95408.75
2022-08-26T10:39:38.146Z,95408.25
2022-08-26T10:40:52.801Z,95405.75
2022-08-26T10:42:00.084Z,95403.22
2022-08-26T10:43:11.140Z,95407.50
2022-08-26T10:44:18.472Z,95406.25
2022-08-26T10:45:25.370Z,95404.22
2022-08-26T10:46:36.203Z,95405.22
2022-08-26T10:47:46.828Z,95401.19
2022-08-26T10:48:57.392Z,95400.94
2022-08-26T10:50:04.591Z,95406.25
2022-08-26T10:51:10.420Z,95397.16
2022-08-26T10:52:19.519Z,95396.13
2022-08-26T10:53:29.477Z,95397.63
2022-08-26T10:54:44.316Z,95399.16
2022-08-26T10:55:55.252Z,95395.88
2022-08-26T10:57:03.015Z,95387.25
2022-08-26T10:58:26.755Z,95389.28
2022-08-26T10:59:46.297Z,95392.34
2022-08-26T11:01:14.434Z,95389.03
2022-08-26T11:02:31.408Z,95382.19
2022-08-26T11:03:40.281Z,95376.88
2022-08-26T11:04:56.940Z,95382.47
2022-08-26T11:06:25.775Z,95374.09
2022-08-26T11:07:37.929Z,95373.56
2022-08-26T11:08:46.207Z,95371.56
2022-08-26T11:09:49.670Z,95382.72
2022-08-26T11:10:58.006Z,95374.59
2022-08-26T11:12:06.786Z,95377.16
2022-08-26T11:13:14.958Z,95371.34
2022-08-26T11:14:45.998Z,95366.00
2022-08-26T11:16:01.086Z,95371.06
2022-08-26T11:17:05.066Z,95373.34
2022-08-26T11:18:10.783Z,95368.28
2022-08-26T11:20:00.325Z,95366.75
2022-08-26T11:21:49.409Z,95361.97
2022-08-26T11:22:59.633Z,95365.25
2022-08-26T11:24:02.293Z,95362.47
2022-08-26T11:25:14.213Z,95359.41
2022-08-26T11:26:35.862Z,95362.94
2022-08-26T11:28:08.599Z,95356.63
2022-08-26T11:29:13.132Z,95363.72
2022-08-26T11:30:58.154Z,95358.38
2022-08-26T11:32:00.656Z,95361.69
2022-08-26T11:33:06.193Z,95358.13
2022-08-26T11:34:14.795Z,95357.88
2022-08-26T11:35:52.273Z,95354.84
2022-08-26T11:37:00.438Z,95355.34
2022-08-26T11:38:15.647Z,95353.31
2022-08-26T11:39:24.084Z,95354.84
2022-08-26T11:40:31.505Z,95350.78
2022-08-26T11:41:34.571Z,95346.97
2022-08-26T11:42:41.963Z,95343.19
2022-08-26T11:43:49.428Z,95349.00
2022-08-26T11:44:52.740Z,95347.97
2022-08-26T11:46:02.184Z,95343.91
2022-08-26T11:47:11.652Z,95343.91
2022-08-26T11:48:19.552Z,95345.69
2022-08-26T11:49:24.606Z,95343.38
2022-08-26T11:50:29.821Z,95343.63
2022-08-26T11:51:37.007Z,95343.88
2022-08-26T11:52:51.561Z,95338.03
2022-08-26T11:54:10.676Z,95340.31
2022-08-26T11:55:16.179Z,95333.47
2022-08-26T11:56:27.401Z,95333.72
2022-08-26T11:57:41.772Z,95332.69
2022-08-26T11:58:46.967Z,95334.22
2022-08-26T11:59:50.054Z,95332.94
2022-08-26T12:00:57.884Z,95325.84
2022-08-26T12:02:02.231Z,95317.50
2022-08-26T12:03:08.990Z,95324.56
2022-08-26T12:04:13.981Z,95317.97
2022-08-26T12:05:25.074Z,95323.53
2022-08-26T12:06:32.856Z,95313.13
2022-08-26T12:07:36.882Z,95318.94
2022-08-26T12:08:45.115Z,95318.19
2022-08-26T12:10:00.520Z,95311.09
2022-08-26T12:11:09.246Z,95317.41
2022-08-26T12:12:14.072Z,95320.97
2022-08-26T12:13:26.235Z,95319.69
2022-08-26T12:14:29.572Z,95319.19
2022-08-26T12:15:35.617Z,95314.13
2022-08-26T12:16:40.158Z,95316.41
2022-08-26T12:17:44.742Z,95312.34
2022-08-26T12:18:46.878Z,95313.63
2022-08-26T12:19:49.831Z,95307.00
2022-08-26T12:20:53.956Z,95310.03
2022-08-26T12:22:02.186Z,95307.78
2022-08-26T12:23:05.017Z,95306.72
2022-08-26T12:24:09.874Z,95312.81
2022-08-26T12:25:15.284Z,95307.47
2022-08-26T12:26:26.446Z,95304.38
2022-08-26T12:27:32.066Z,95298.81
2022-08-26T12:28:44.786Z,95303.88
2022-08-26T12:30:02.696Z,95299.59
2022-08-26T12:31:06.471Z,95303.88
2022-08-26T12:32:13.208Z,95294.75
2022-08-26T12:33:22.935Z,95297.53
2022-08-26T12:34:28.096Z,95294.75
2022-08-26T12:35:32.261Z,95291.44
2022-08-26T12:36:40.402Z,95294.75
2022-08-26T12:37:47.939Z,95297.78
2022-08-26T12:38:51.319Z,95291.44
2022-08-26T12:39:54.493Z,95289.94
2022-08-26T12:40:58.318Z,95292.22
2022-08-26T12:42:03.233Z,95295.00
2022-08-26T12:43:07.507Z,95284.59
2022-08-26T12:44:31.332Z,95283.84
2022-08-26T12:45:35.803Z,95281.81
2022-08-26T12:46:41.623Z,95281.81
2022-08-26T12:47:45.764Z,95276.22
2022-08-26T12:48:50.268Z,95288.13
2022-08-26T12:50:02.265Z,95284.09
2022-08-26T12:51:07.227Z,95280.75
2022-08-26T12:52:35.311Z,95278.97
2022-08-26T12:53:43.275Z,95283.53
2022-08-26T12:55:02.785Z,95279.69
2022-08-26T12:56:22.070Z,95278.41
2022-08-26T12:57:27.999Z,95274.34
2022-08-26T12:58:33.168Z,95277.38
2022-08-26T12:59:35.299Z,95269.25
2022-08-26T13:00:42.041Z,95263.91
2022-08-26T13:01:46.902Z,95263.38